首页
METAR-TAF:

METAR-TAF

机场 :

維多利亞港口, 不列颠哥伦比亚, 加拿大

纬度: 48-25N, 经度: 123-20W, 海拔: 5米

当前天气观测

该预报发布于54分钟前的01:00 UTC
风速4节,风向西
温度 13°C
湿度 77%
气压 1016 hPa
能見度: 24.1公里
少量云层高于1000英尺
散云层高于3200英尺
多云层高于6000英尺
多云层高于9000英尺
多云层高于12000英尺

METAR: CYWH 170100Z 28004KT 15SM FEW010 SCT032 BKN060 BKN090 BKN120 13/09 A3001 RMK SF1SC3SC2AC1AC1 SF TR SLP164

时间: 18:54 (01:54 UTC)

预报

该预报发布于5小时和14分钟前的20:40 UTC
预报有效从16日的 21点(UTC)到 17日的 04点(UTC)
风速8节,风向西南
能見度: 10公里
少量云层高于3000英尺
多云层高于5000英尺
多云层高于10000英尺
短暂存在
从 16日的 21点(UTC)到 17日的 04点(UTC)
能見度: 10公里
多云层高于3000英尺
小阵雨

TAF: CYWH 162040Z 1621/1704 23008KT P6SM FEW030 BKN050 BKN100 TEMPO 1621/1704 P6SM -SHRA BKN030 RMK NXT FCST BY 171400Z

超过4000个机场的气象观测和天气预报(METAR&TAF报告)。

可查询的气象台以黄色和红色小点在地图上表示。

将鼠标移到小点上方,可查看气象台名称。

然后点击查看天气观测和预报。

如需切换地图:点击带黑十字的绿色按钮放大地图;点击带横线的绿色按钮缩小地图;或者点击绿色箭头查看邻近地区的地图。


METAR-TAF: